sensor_id;sensor_type;location;lat;lon;timestamp;P1;durP1;ratioP1;P2;durP2;ratioP2
49193;SDS011;35029;50.804;12.866;2024-01-15T00:01:54;22.47;;;11.83;;
49193;SDS011;35029;50.804;12.866;2024-01-15T00:04:20;24.53;;;12.03;;
49193;SDS011;35029;50.804;12.866;2024-01-15T00:06:45;24.33;;;12.83;;
49193;SDS011;35029;50.804;12.866;2024-01-15T00:09:11;22.80;;;12.23;;
49193;SDS011;35029;50.804;12.866;2024-01-15T00:11:36;22.15;;;12.77;;
49193;SDS011;35029;50.804;12.866;2024-01-15T00:14:02;24.70;;;13.57;;
49193;SDS011;35029;50.804;12.866;2024-01-15T00:16:28;23.63;;;12.77;;
49193;SDS011;35029;50.804;12.866;2024-01-15T00:18:54;22.30;;;12.70;;
49193;SDS011;35029;50.804;12.866;2024-01-15T00:21:20;22.27;;;11.73;;
49193;SDS011;35029;50.804;12.866;2024-01-15T00:23:46;22.77;;;12.93;;
49193;SDS011;35029;50.804;12.866;2024-01-15T00:26:11;25.58;;;13.02;;
49193;SDS011;35029;50.804;12.866;2024-01-15T00:28:37;22.37;;;12.17;;
49193;SDS011;35029;50.804;12.866;2024-01-15T00:31:06;26.77;;;13.13;;
49193;SDS011;35029;50.804;12.866;2024-01-15T00:33:32;20.52;;;11.77;;
49193;SDS011;35029;50.804;12.866;2024-01-15T00:35:58;24.00;;;13.10;;
49193;SDS011;35029;50.804;12.866;2024-01-15T00:38:23;26.90;;;13.20;;
49193;SDS011;35029;50.804;12.866;2024-01-15T00:40:50;26.80;;;13.37;;
49193;SDS011;35029;50.804;12.866;2024-01-15T00:43:15;25.87;;;12.97;;
49193;SDS011;35029;50.804;12.866;2024-01-15T00:45:43;22.75;;;12.38;;
49193;SDS011;35029;50.804;12.866;2024-01-15T00:48:08;22.00;;;11.67;;
49193;SDS011;35029;50.804;12.866;2024-01-15T00:50:34;25.17;;;12.18;;
49193;SDS011;35029;50.804;12.866;2024-01-15T00:53:00;29.17;;;13.40;;
49193;SDS011;35029;50.804;12.866;2024-01-15T00:55:25;23.77;;;12.70;;
49193;SDS011;35029;50.804;12.866;2024-01-15T00:57:52;22.85;;;12.20;;
49193;SDS011;35029;50.804;12.866;2024-01-15T01:00:17;25.37;;;12.53;;
49193;SDS011;35029;50.804;12.866;2024-01-15T01:02:43;22.63;;;12.97;;
49193;SDS011;35029;50.804;12.866;2024-01-15T01:05:09;21.45;;;12.68;;
49193;SDS011;35029;50.804;12.866;2024-01-15T01:07:34;26.07;;;13.83;;
49193;SDS011;35029;50.804;12.866;2024-01-15T01:10:00;24.65;;;13.85;;
49193;SDS011;35029;50.804;12.866;2024-01-15T01:12:26;26.40;;;13.63;;
49193;SDS011;35029;50.804;12.866;2024-01-15T01:14:51;23.77;;;13.32;;
49193;SDS011;35029;50.804;12.866;2024-01-15T01:17:17;25.23;;;12.40;;
49193;SDS011;35029;50.804;12.866;2024-01-15T01:19:42;25.40;;;13.95;;
49193;SDS011;35029;50.804;12.866;2024-01-15T01:22:08;23.53;;;12.73;;
49193;SDS011;35029;50.804;12.866;2024-01-15T01:24:34;23.77;;;13.67;;
49193;SDS011;35029;50.804;12.866;2024-01-15T01:27:00;27.03;;;14.17;;
49193;SDS011;35029;50.804;12.866;2024-01-15T01:29:25;27.03;;;13.23;;
49193;SDS011;35029;50.804;12.866;2024-01-15T01:31:52;25.67;;;14.77;;
49193;SDS011;35029;50.804;12.866;2024-01-15T01:34:17;29.17;;;14.53;;
49193;SDS011;35029;50.804;12.866;2024-01-15T01:36:43;23.80;;;14.03;;
49193;SDS011;35029;50.804;12.866;2024-01-15T01:39:10;27.10;;;14.98;;
49193;SDS011;35029;50.804;12.866;2024-01-15T01:41:36;26.37;;;15.73;;
49193;SDS011;35029;50.804;12.866;2024-01-15T01:44:01;25.10;;;14.23;;
49193;SDS011;35029;50.804;12.866;2024-01-15T01:46:27;24.07;;;13.17;;
49193;SDS011;35029;50.804;12.866;2024-01-15T01:48:54;24.50;;;14.07;;
49193;SDS011;35029;50.804;12.866;2024-01-15T01:51:24;25.00;;;14.17;;
49193;SDS011;35029;50.804;12.866;2024-01-15T01:53:50;27.05;;;15.02;;
49193;SDS011;35029;50.804;12.866;2024-01-15T01:56:17;26.45;;;15.52;;
49193;SDS011;35029;50.804;12.866;2024-01-15T01:58:44;26.77;;;14.70;;
49193;SDS011;35029;50.804;12.866;2024-01-15T02:01:11;26.83;;;14.93;;
49193;SDS011;35029;50.804;12.866;2024-01-15T02:03:38;30.83;;;15.93;;
49193;SDS011;35029;50.804;12.866;2024-01-15T02:06:05;25.13;;;13.37;;
49193;SDS011;35029;50.804;12.866;2024-01-15T02:08:31;33.43;;;16.40;;
49193;SDS011;35029;50.804;12.866;2024-01-15T02:10:57;29.53;;;15.53;;
49193;SDS011;35029;50.804;12.866;2024-01-15T02:13:23;29.00;;;16.43;;
49193;SDS011;35029;50.804;12.866;2024-01-15T02:15:48;32.40;;;16.17;;
49193;SDS011;35029;50.804;12.866;2024-01-15T02:18:14;27.00;;;15.33;;
49193;SDS011;35029;50.804;12.866;2024-01-15T02:20:39;31.90;;;16.33;;
49193;SDS011;35029;50.804;12.866;2024-01-15T02:25:41;30.07;;;16.27;;
49193;SDS011;35029;50.804;12.866;2024-01-15T02:28:13;30.30;;;16.53;;
49193;SDS011;35029;50.804;12.866;2024-01-15T02:30:41;30.10;;;16.27;;
49193;SDS011;35029;50.804;12.866;2024-01-15T02:33:07;29.53;;;16.87;;
49193;SDS011;35029;50.804;12.866;2024-01-15T02:35:34;30.33;;;17.80;;
49193;SDS011;35029;50.804;12.866;2024-01-15T02:38:02;32.23;;;16.43;;
49193;SDS011;35029;50.804;12.866;2024-01-15T02:40:28;31.80;;;17.23;;
49193;SDS011;35029;50.804;12.866;2024-01-15T02:42:53;33.20;;;17.70;;
49193;SDS011;35029;50.804;12.866;2024-01-15T02:45:19;30.03;;;16.60;;
49193;SDS011;35029;50.804;12.866;2024-01-15T02:47:45;32.03;;;17.83;;
49193;SDS011;35029;50.804;12.866;2024-01-15T02:50:11;31.30;;;17.80;;
49193;SDS011;35029;50.804;12.866;2024-01-15T02:52:36;34.40;;;18.37;;
49193;SDS011;35029;50.804;12.866;2024-01-15T02:55:02;33.60;;;17.67;;
49193;SDS011;35029;50.804;12.866;2024-01-15T02:57:28;33.30;;;17.37;;
49193;SDS011;35029;50.804;12.866;2024-01-15T02:59:53;36.83;;;18.67;;
49193;SDS011;35029;50.804;12.866;2024-01-15T03:02:19;36.47;;;16.97;;
49193;SDS011;35029;50.804;12.866;2024-01-15T03:04:44;35.77;;;18.73;;
49193;SDS011;35029;50.804;12.866;2024-01-15T03:07:12;31.10;;;17.20;;
49193;SDS011;35029;50.804;12.866;2024-01-15T03:09:37;38.13;;;18.83;;
49193;SDS011;35029;50.804;12.866;2024-01-15T03:12:04;37.23;;;18.97;;
49193;SDS011;35029;50.804;12.866;2024-01-15T03:14:30;34.00;;;17.97;;
49193;SDS011;35029;50.804;12.866;2024-01-15T03:16:55;34.47;;;18.23;;
49193;SDS011;35029;50.804;12.866;2024-01-15T03:19:21;42.83;;;19.87;;
49193;SDS011;35029;50.804;12.866;2024-01-15T03:21:47;40.27;;;19.83;;
49193;SDS011;35029;50.804;12.866;2024-01-15T03:24:13;37.07;;;19.43;;
49193;SDS011;35029;50.804;12.866;2024-01-15T03:26:38;35.77;;;19.70;;
49193;SDS011;35029;50.804;12.866;2024-01-15T03:29:04;36.00;;;17.60;;
49193;SDS011;35029;50.804;12.866;2024-01-15T03:31:30;36.70;;;17.57;;
49193;SDS011;35029;50.804;12.866;2024-01-15T03:33:55;30.40;;;16.83;;
49193;SDS011;35029;50.804;12.866;2024-01-15T03:36:21;31.03;;;17.43;;
49193;SDS011;35029;50.804;12.866;2024-01-15T03:38:47;34.50;;;18.43;;
49193;SDS011;35029;50.804;12.866;2024-01-15T03:41:13;35.07;;;17.37;;
49193;SDS011;35029;50.804;12.866;2024-01-15T03:43:38;35.40;;;17.60;;
49193;SDS011;35029;50.804;12.866;2024-01-15T03:46:05;34.73;;;17.60;;
49193;SDS011;35029;50.804;12.866;2024-01-15T03:48:30;31.50;;;18.10;;
49193;SDS011;35029;50.804;12.866;2024-01-15T03:50:56;32.27;;;17.13;;
49193;SDS011;35029;50.804;12.866;2024-01-15T03:53:22;33.97;;;17.80;;
49193;SDS011;35029;50.804;12.866;2024-01-15T03:55:47;35.57;;;17.57;;
49193;SDS011;35029;50.804;12.866;2024-01-15T03:58:13;33.67;;;16.33;;
49193;SDS011;35029;50.804;12.866;2024-01-15T04:00:40;32.30;;;16.77;;
49193;SDS011;35029;50.804;12.866;2024-01-15T04:03:06;31.93;;;16.90;;
49193;SDS011;35029;50.804;12.866;2024-01-15T04:05:31;31.47;;;16.60;;
49193;SDS011;35029;50.804;12.866;2024-01-15T04:07:57;35.77;;;18.33;;
49193;SDS011;35029;50.804;12.866;2024-01-15T04:10:24;36.43;;;18.17;;
49193;SDS011;35029;50.804;12.866;2024-01-15T04:12:50;36.23;;;16.83;;
49193;SDS011;35029;50.804;12.866;2024-01-15T04:15:15;35.27;;;17.97;;
49193;SDS011;35029;50.804;12.866;2024-01-15T04:17:41;37.13;;;19.77;;
49193;SDS011;35029;50.804;12.866;2024-01-15T04:20:06;35.57;;;18.50;;
49193;SDS011;35029;50.804;12.866;2024-01-15T04:22:33;39.80;;;18.30;;
49193;SDS011;35029;50.804;12.866;2024-01-15T04:24:59;36.07;;;18.73;;
49193;SDS011;35029;50.804;12.866;2024-01-15T04:27:24;34.67;;;18.83;;
49193;SDS011;35029;50.804;12.866;2024-01-15T04:29:50;36.90;;;18.63;;
49193;SDS011;35029;50.804;12.866;2024-01-15T04:32:16;42.80;;;20.33;;
49193;SDS011;35029;50.804;12.866;2024-01-15T04:34:41;38.93;;;18.43;;
49193;SDS011;35029;50.804;12.866;2024-01-15T04:37:07;35.10;;;18.63;;
49193;SDS011;35029;50.804;12.866;2024-01-15T04:39:33;37.95;;;18.90;;
49193;SDS011;35029;50.804;12.866;2024-01-15T04:41:58;36.90;;;16.97;;
49193;SDS011;35029;50.804;12.866;2024-01-15T04:44:24;39.83;;;19.50;;
49193;SDS011;35029;50.804;12.866;2024-01-15T04:46:49;34.23;;;17.40;;
49193;SDS011;35029;50.804;12.866;2024-01-15T04:49:15;36.60;;;17.63;;
49193;SDS011;35029;50.804;12.866;2024-01-15T04:51:40;36.27;;;17.60;;
49193;SDS011;35029;50.804;12.866;2024-01-15T04:54:06;35.77;;;18.40;;
49193;SDS011;35029;50.804;12.866;2024-01-15T04:56:32;34.40;;;16.97;;
49193;SDS011;35029;50.804;12.866;2024-01-15T04:58:58;36.83;;;18.03;;
49193;SDS011;35029;50.804;12.866;2024-01-15T05:01:23;37.40;;;19.30;;
49193;SDS011;35029;50.804;12.866;2024-01-15T05:03:49;36.67;;;18.63;;
49193;SDS011;35029;50.804;12.866;2024-01-15T05:06:15;39.23;;;18.40;;
49193;SDS011;35029;50.804;12.866;2024-01-15T05:08:41;35.10;;;18.27;;
49193;SDS011;35029;50.804;12.866;2024-01-15T05:11:14;33.53;;;17.60;;
49193;SDS011;35029;50.804;12.866;2024-01-15T05:13:41;32.40;;;16.37;;
49193;SDS011;35029;50.804;12.866;2024-01-15T05:16:07;32.07;;;16.97;;
49193;SDS011;35029;50.804;12.866;2024-01-15T05:18:33;34.30;;;17.73;;
49193;SDS011;35029;50.804;12.866;2024-01-15T05:20:59;30.13;;;17.63;;
49193;SDS011;35029;50.804;12.866;2024-01-15T05:23:24;30.50;;;16.50;;
49193;SDS011;35029;50.804;12.866;2024-01-15T05:25:51;34.93;;;17.00;;
49193;SDS011;35029;50.804;12.866;2024-01-15T05:28:17;27.53;;;15.17;;
49193;SDS011;35029;50.804;12.866;2024-01-15T05:30:42;31.20;;;16.50;;
49193;SDS011;35029;50.804;12.866;2024-01-15T05:33:07;32.10;;;15.83;;
49193;SDS011;35029;50.804;12.866;2024-01-15T05:35:33;31.50;;;15.13;;
49193;SDS011;35029;50.804;12.866;2024-01-15T05:38:00;29.00;;;15.37;;
49193;SDS011;35029;50.804;12.866;2024-01-15T05:40:26;32.33;;;15.27;;
49193;SDS011;35029;50.804;12.866;2024-01-15T05:42:51;30.43;;;15.43;;
49193;SDS011;35029;50.804;12.866;2024-01-15T05:45:17;29.70;;;14.73;;
49193;SDS011;35029;50.804;12.866;2024-01-15T05:47:42;28.27;;;13.77;;
49193;SDS011;35029;50.804;12.866;2024-01-15T05:50:09;26.63;;;14.10;;
49193;SDS011;35029;50.804;12.866;2024-01-15T05:52:35;26.77;;;13.63;;
49193;SDS011;35029;50.804;12.866;2024-01-15T05:55:00;25.17;;;13.43;;
49193;SDS011;35029;50.804;12.866;2024-01-15T05:57:26;28.40;;;14.20;;
49193;SDS011;35029;50.804;12.866;2024-01-15T05:59:51;27.27;;;14.43;;
49193;SDS011;35029;50.804;12.866;2024-01-15T06:02:17;25.00;;;13.90;;
49193;SDS011;35029;50.804;12.866;2024-01-15T06:04:43;25.63;;;13.40;;
49193;SDS011;35029;50.804;12.866;2024-01-15T06:07:09;25.33;;;13.07;;
49193;SDS011;35029;50.804;12.866;2024-01-15T06:09:34;22.03;;;13.17;;
49193;SDS011;35029;50.804;12.866;2024-01-15T06:12:00;22.17;;;12.60;;
49193;SDS011;35029;50.804;12.866;2024-01-15T06:14:26;26.07;;;12.37;;
49193;SDS011;35029;50.804;12.866;2024-01-15T06:16:52;25.57;;;13.93;;
49193;SDS011;35029;50.804;12.866;2024-01-15T06:19:18;25.23;;;13.47;;
49193;SDS011;35029;50.804;12.866;2024-01-15T06:21:44;22.87;;;12.47;;
49193;SDS011;35029;50.804;12.866;2024-01-15T06:24:09;23.97;;;12.77;;
49193;SDS011;35029;50.804;12.866;2024-01-15T06:26:36;21.47;;;13.07;;
49193;SDS011;35029;50.804;12.866;2024-01-15T06:29:02;27.87;;;12.97;;
49193;SDS011;35029;50.804;12.866;2024-01-15T06:31:28;26.70;;;13.93;;
49193;SDS011;35029;50.804;12.866;2024-01-15T06:33:54;27.70;;;13.43;;
49193;SDS011;35029;50.804;12.866;2024-01-15T06:36:20;26.30;;;13.60;;
49193;SDS011;35029;50.804;12.866;2024-01-15T06:38:46;21.77;;;13.03;;
49193;SDS011;35029;50.804;12.866;2024-01-15T06:41:12;24.63;;;13.53;;
49193;SDS011;35029;50.804;12.866;2024-01-15T06:43:38;24.10;;;13.47;;
49193;SDS011;35029;50.804;12.866;2024-01-15T06:46:03;23.03;;;13.47;;
49193;SDS011;35029;50.804;12.866;2024-01-15T06:48:29;23.40;;;13.97;;
49193;SDS011;35029;50.804;12.866;2024-01-15T06:50:54;25.93;;;14.00;;
49193;SDS011;35029;50.804;12.866;2024-01-15T06:53:20;24.00;;;12.43;;
49193;SDS011;35029;50.804;12.866;2024-01-15T06:55:46;26.63;;;14.23;;
49193;SDS011;35029;50.804;12.866;2024-01-15T06:58:11;22.93;;;12.90;;
49193;SDS011;35029;50.804;12.866;2024-01-15T07:00:37;27.37;;;13.93;;
49193;SDS011;35029;50.804;12.866;2024-01-15T07:03:03;26.93;;;14.50;;
49193;SDS011;35029;50.804;12.866;2024-01-15T07:05:30;26.37;;;13.70;;
49193;SDS011;35029;50.804;12.866;2024-01-15T07:07:55;23.57;;;14.03;;
49193;SDS011;35029;50.804;12.866;2024-01-15T07:10:21;24.03;;;14.00;;
49193;SDS011;35029;50.804;12.866;2024-01-15T07:12:47;27.07;;;14.33;;
49193;SDS011;35029;50.804;12.866;2024-01-15T07:15:15;29.87;;;15.40;;
49193;SDS011;35029;50.804;12.866;2024-01-15T07:17:41;27.90;;;14.10;;
49193;SDS011;35029;50.804;12.866;2024-01-15T07:20:08;28.03;;;14.90;;
49193;SDS011;35029;50.804;12.866;2024-01-15T07:22:37;24.47;;;13.23;;
49193;SDS011;35029;50.804;12.866;2024-01-15T07:25:04;26.63;;;15.03;;
49193;SDS011;35029;50.804;12.866;2024-01-15T07:27:30;24.90;;;12.93;;
49193;SDS011;35029;50.804;12.866;2024-01-15T07:29:57;29.37;;;14.43;;
49193;SDS011;35029;50.804;12.866;2024-01-15T07:32:23;28.60;;;14.67;;
49193;SDS011;35029;50.804;12.866;2024-01-15T07:34:50;25.20;;;13.90;;
49193;SDS011;35029;50.804;12.866;2024-01-15T07:37:15;23.93;;;13.40;;
49193;SDS011;35029;50.804;12.866;2024-01-15T07:39:41;26.07;;;13.40;;
49193;SDS011;35029;50.804;12.866;2024-01-15T07:42:07;29.90;;;14.43;;
49193;SDS011;35029;50.804;12.866;2024-01-15T07:44:33;27.33;;;13.87;;
49193;SDS011;35029;50.804;12.866;2024-01-15T07:46:58;23.40;;;13.83;;
49193;SDS011;35029;50.804;12.866;2024-01-15T07:49:24;21.00;;;12.17;;
49193;SDS011;35029;50.804;12.866;2024-01-15T07:51:50;25.57;;;13.13;;
49193;SDS011;35029;50.804;12.866;2024-01-15T07:54:16;27.07;;;12.03;;
49193;SDS011;35029;50.804;12.866;2024-01-15T07:56:57;22.80;;;12.57;;
49193;SDS011;35029;50.804;12.866;2024-01-15T07:59:24;28.17;;;13.10;;
49193;SDS011;35029;50.804;12.866;2024-01-15T08:01:51;25.30;;;12.10;;
49193;SDS011;35029;50.804;12.866;2024-01-15T08:04:18;24.47;;;12.73;;
49193;SDS011;35029;50.804;12.866;2024-01-15T08:06:44;20.27;;;11.57;;
49193;SDS011;35029;50.804;12.866;2024-01-15T08:09:10;21.90;;;11.40;;
49193;SDS011;35029;50.804;12.866;2024-01-15T08:11:36;17.00;;;11.17;;
49193;SDS011;35029;50.804;12.866;2024-01-15T08:14:04;24.83;;;11.03;;
49193;SDS011;35029;50.804;12.866;2024-01-15T08:16:29;23.80;;;12.40;;
49193;SDS011;35029;50.804;12.866;2024-01-15T08:18:55;20.73;;;11.13;;
49193;SDS011;35029;50.804;12.866;2024-01-15T08:21:21;21.27;;;11.63;;
49193;SDS011;35029;50.804;12.866;2024-01-15T08:23:48;29.10;;;11.73;;
49193;SDS011;35029;50.804;12.866;2024-01-15T08:26:13;24.70;;;11.20;;
49193;SDS011;35029;50.804;12.866;2024-01-15T08:28:39;22.63;;;11.27;;
49193;SDS011;35029;50.804;12.866;2024-01-15T08:31:04;18.33;;;10.23;;
49193;SDS011;35029;50.804;12.866;2024-01-15T08:33:30;25.03;;;11.13;;
49193;SDS011;35029;50.804;12.866;2024-01-15T08:35:57;18.77;;;10.23;;
49193;SDS011;35029;50.804;12.866;2024-01-15T08:38:22;32.28;;;9.82;;
49193;SDS011;35029;50.804;12.866;2024-01-15T08:40:49;17.80;;;9.27;;
49193;SDS011;35029;50.804;12.866;2024-01-15T08:43:14;23.38;;;10.73;;
49193;SDS011;35029;50.804;12.866;2024-01-15T08:45:40;19.20;;;9.60;;
49193;SDS011;35029;50.804;12.866;2024-01-15T08:48:06;17.93;;;9.77;;
49193;SDS011;35029;50.804;12.866;2024-01-15T08:50:32;19.60;;;11.45;;
49193;SDS011;35029;50.804;12.866;2024-01-15T08:52:58;23.63;;;10.60;;
49193;SDS011;35029;50.804;12.866;2024-01-15T08:55:25;17.07;;;10.17;;
49193;SDS011;35029;50.804;12.866;2024-01-15T08:57:51;18.53;;;10.97;;
49193;SDS011;35029;50.804;12.866;2024-01-15T09:00:17;21.20;;;10.40;;
49193;SDS011;35029;50.804;12.866;2024-01-15T09:02:43;19.53;;;9.80;;
49193;SDS011;35029;50.804;12.866;2024-01-15T09:05:09;17.57;;;9.67;;
49193;SDS011;35029;50.804;12.866;2024-01-15T09:07:35;17.97;;;9.47;;
49193;SDS011;35029;50.804;12.866;2024-01-15T09:10:00;23.23;;;10.87;;
49193;SDS011;35029;50.804;12.866;2024-01-15T09:12:27;18.57;;;9.73;;
49193;SDS011;35029;50.804;12.866;2024-01-15T09:14:53;24.00;;;9.90;;
49193;SDS011;35029;50.804;12.866;2024-01-15T09:17:21;19.00;;;10.73;;
49193;SDS011;35029;50.804;12.866;2024-01-15T09:19:50;15.20;;;9.43;;
49193;SDS011;35029;50.804;12.866;2024-01-15T09:22:15;20.07;;;10.23;;
49193;SDS011;35029;50.804;12.866;2024-01-15T09:24:44;16.77;;;10.10;;
49193;SDS011;35029;50.804;12.866;2024-01-15T09:27:10;16.23;;;9.17;;
49193;SDS011;35029;50.804;12.866;2024-01-15T09:29:36;21.35;;;9.65;;
49193;SDS011;35029;50.804;12.866;2024-01-15T09:32:07;21.75;;;10.20;;
49193;SDS011;35029;50.804;12.866;2024-01-15T09:34:33;22.98;;;9.32;;
49193;SDS011;35029;50.804;12.866;2024-01-15T09:37:00;17.07;;;9.63;;
49193;SDS011;35029;50.804;12.866;2024-01-15T09:39:26;20.43;;;9.90;;
49193;SDS011;35029;50.804;12.866;2024-01-15T09:41:53;19.17;;;9.80;;
49193;SDS011;35029;50.804;12.866;2024-01-15T09:44:19;18.23;;;9.65;;
49193;SDS011;35029;50.804;12.866;2024-01-15T09:46:46;22.57;;;10.20;;
49193;SDS011;35029;50.804;12.866;2024-01-15T09:49:15;20.70;;;10.17;;
49193;SDS011;35029;50.804;12.866;2024-01-15T09:51:42;21.50;;;10.07;;
49193;SDS011;35029;50.804;12.866;2024-01-15T09:54:08;15.10;;;8.83;;
49193;SDS011;35029;50.804;12.866;2024-01-15T09:56:34;20.17;;;9.67;;
49193;SDS011;35029;50.804;12.866;2024-01-15T09:59:00;15.80;;;9.87;;
49193;SDS011;35029;50.804;12.866;2024-01-15T10:01:27;14.80;;;8.50;;
49193;SDS011;35029;50.804;12.866;2024-01-15T10:03:54;17.57;;;8.67;;
49193;SDS011;35029;50.804;12.866;2024-01-15T10:06:21;16.63;;;9.07;;
49193;SDS011;35029;50.804;12.866;2024-01-15T10:08:50;19.08;;;8.90;;
49193;SDS011;35029;50.804;12.866;2024-01-15T10:11:16;14.77;;;9.47;;
49193;SDS011;35029;50.804;12.866;2024-01-15T10:13:43;18.97;;;10.03;;
49193;SDS011;35029;50.804;12.866;2024-01-15T10:16:09;17.50;;;9.77;;
49193;SDS011;35029;50.804;12.866;2024-01-15T10:18:36;15.00;;;8.93;;
49193;SDS011;35029;50.804;12.866;2024-01-15T10:21:02;18.40;;;8.63;;
49193;SDS011;35029;50.804;12.866;2024-01-15T10:23:29;14.93;;;8.67;;
49193;SDS011;35029;50.804;12.866;2024-01-15T10:25:57;18.13;;;9.27;;
49193;SDS011;35029;50.804;12.866;2024-01-15T10:28:25;18.15;;;9.25;;
49193;SDS011;35029;50.804;12.866;2024-01-15T10:30:52;15.95;;;9.00;;
49193;SDS011;35029;50.804;12.866;2024-01-15T10:33:21;15.80;;;7.93;;
49193;SDS011;35029;50.804;12.866;2024-01-15T10:35:50;13.38;;;7.32;;
49193;SDS011;35029;50.804;12.866;2024-01-15T10:38:21;13.88;;;7.97;;
49193;SDS011;35029;50.804;12.866;2024-01-15T10:40:48;16.60;;;7.67;;
49193;SDS011;35029;50.804;12.866;2024-01-15T10:43:20;14.90;;;7.67;;
49193;SDS011;35029;50.804;12.866;2024-01-15T10:45:47;15.30;;;7.70;;
49193;SDS011;35029;50.804;12.866;2024-01-15T10:48:14;12.90;;;7.50;;
49193;SDS011;35029;50.804;12.866;2024-01-15T10:50:41;16.87;;;8.07;;
49193;SDS011;35029;50.804;12.866;2024-01-15T10:53:08;15.45;;;7.65;;
49193;SDS011;35029;50.804;12.866;2024-01-15T10:55:35;12.30;;;7.10;;
49193;SDS011;35029;50.804;12.866;2024-01-15T10:58:02;14.13;;;8.33;;
49193;SDS011;35029;50.804;12.866;2024-01-15T11:00:29;13.97;;;8.97;;
49193;SDS011;35029;50.804;12.866;2024-01-15T11:02:56;15.47;;;8.00;;
49193;SDS011;35029;50.804;12.866;2024-01-15T11:05:22;17.23;;;8.52;;
49193;SDS011;35029;50.804;12.866;2024-01-15T11:07:48;15.70;;;7.78;;
49193;SDS011;35029;50.804;12.866;2024-01-15T11:16:05;15.55;;;8.15;;
49193;SDS011;35029;50.804;12.866;2024-01-15T11:18:39;13.73;;;7.10;;
49193;SDS011;35029;50.804;12.866;2024-01-15T11:23:54;15.23;;;8.18;;
49193;SDS011;35029;50.804;12.866;2024-01-15T11:29:03;15.30;;;7.80;;
49193;SDS011;35029;50.804;12.866;2024-01-15T11:34:09;16.85;;;7.47;;
49193;SDS011;35029;50.804;12.866;2024-01-15T11:39:39;12.90;;;7.45;;
49193;SDS011;35029;50.804;12.866;2024-01-15T11:42:05;14.02;;;8.15;;
49193;SDS011;35029;50.804;12.866;2024-01-15T11:44:30;13.53;;;7.00;;
49193;SDS011;35029;50.804;12.866;2024-01-15T11:47:02;21.45;;;8.13;;
49193;SDS011;35029;50.804;12.866;2024-01-15T11:52:31;11.77;;;7.13;;
49193;SDS011;35029;50.804;12.866;2024-01-15T11:57:46;15.95;;;7.72;;
49193;SDS011;35029;50.804;12.866;2024-01-15T12:00:12;13.52;;;7.00;;
49193;SDS011;35029;50.804;12.866;2024-01-15T12:02:40;14.10;;;7.57;;
49193;SDS011;35029;50.804;12.866;2024-01-15T12:05:07;16.23;;;6.57;;
49193;SDS011;35029;50.804;12.866;2024-01-15T12:07:33;12.15;;;6.35;;
49193;SDS011;35029;50.804;12.866;2024-01-15T12:10:00;20.52;;;7.65;;
49193;SDS011;35029;50.804;12.866;2024-01-15T12:12:39;12.75;;;7.05;;
49193;SDS011;35029;50.804;12.866;2024-01-15T12:15:05;13.98;;;6.78;;
49193;SDS011;35029;50.804;12.866;2024-01-15T12:17:32;14.55;;;7.82;;
49193;SDS011;35029;50.804;12.866;2024-01-15T12:19:57;13.13;;;7.40;;
49193;SDS011;35029;50.804;12.866;2024-01-15T12:22:25;13.75;;;7.22;;
49193;SDS011;35029;50.804;12.866;2024-01-15T12:24:52;16.13;;;7.22;;
49193;SDS011;35029;50.804;12.866;2024-01-15T12:27:22;18.83;;;7.63;;
49193;SDS011;35029;50.804;12.866;2024-01-15T12:29:47;11.68;;;6.45;;
49193;SDS011;35029;50.804;12.866;2024-01-15T12:32:13;15.38;;;6.90;;
49193;SDS011;35029;50.804;12.866;2024-01-15T12:34:40;16.67;;;8.33;;
49193;SDS011;35029;50.804;12.866;2024-01-15T12:37:09;14.35;;;6.68;;
49193;SDS011;35029;50.804;12.866;2024-01-15T12:39:36;15.87;;;6.73;;
49193;SDS011;35029;50.804;12.866;2024-01-15T12:42:02;12.25;;;7.18;;
49193;SDS011;35029;50.804;12.866;2024-01-15T12:44:28;11.75;;;7.00;;
49193;SDS011;35029;50.804;12.866;2024-01-15T12:46:54;12.15;;;6.82;;
49193;SDS011;35029;50.804;12.866;2024-01-15T12:49:21;13.43;;;6.60;;
49193;SDS011;35029;50.804;12.866;2024-01-15T12:51:57;11.20;;;7.28;;
49193;SDS011;35029;50.804;12.866;2024-01-15T12:54:24;14.55;;;8.10;;
49193;SDS011;35029;50.804;12.866;2024-01-15T12:56:50;10.18;;;6.47;;
49193;SDS011;35029;50.804;12.866;2024-01-15T12:59:16;14.45;;;7.90;;
49193;SDS011;35029;50.804;12.866;2024-01-15T13:01:42;12.90;;;6.80;;
49193;SDS011;35029;50.804;12.866;2024-01-15T13:04:08;12.87;;;7.30;;
49193;SDS011;35029;50.804;12.866;2024-01-15T13:06:34;13.50;;;7.05;;
49193;SDS011;35029;50.804;12.866;2024-01-15T13:09:00;14.75;;;6.85;;
49193;SDS011;35029;50.804;12.866;2024-01-15T13:11:27;14.38;;;6.22;;
49193;SDS011;35029;50.804;12.866;2024-01-15T13:13:52;15.23;;;7.20;;
49193;SDS011;35029;50.804;12.866;2024-01-15T13:16:18;14.10;;;6.82;;
49193;SDS011;35029;50.804;12.866;2024-01-15T13:18:46;14.27;;;6.93;;
49193;SDS011;35029;50.804;12.866;2024-01-15T13:21:11;11.53;;;6.53;;
49193;SDS011;35029;50.804;12.866;2024-01-15T13:23:38;12.60;;;6.78;;
49193;SDS011;35029;50.804;12.866;2024-01-15T13:26:04;11.20;;;6.57;;
49193;SDS011;35029;50.804;12.866;2024-01-15T13:28:30;11.53;;;6.37;;
49193;SDS011;35029;50.804;12.866;2024-01-15T13:30:55;11.35;;;6.20;;
49193;SDS011;35029;50.804;12.866;2024-01-15T13:33:21;14.85;;;7.07;;
49193;SDS011;35029;50.804;12.866;2024-01-15T13:35:47;10.68;;;6.07;;
49193;SDS011;35029;50.804;12.866;2024-01-15T13:38:15;9.80;;;6.00;;
49193;SDS011;35029;50.804;12.866;2024-01-15T13:40:41;17.20;;;6.55;;
49193;SDS011;35029;50.804;12.866;2024-01-15T13:43:07;11.40;;;6.10;;
49193;SDS011;35029;50.804;12.866;2024-01-15T13:45:33;12.13;;;6.63;;
49193;SDS011;35029;50.804;12.866;2024-01-15T13:48:00;15.37;;;6.80;;
49193;SDS011;35029;50.804;12.866;2024-01-15T13:50:26;11.68;;;7.03;;
49193;SDS011;35029;50.804;12.866;2024-01-15T13:52:52;14.77;;;6.70;;
49193;SDS011;35029;50.804;12.866;2024-01-15T13:55:18;11.95;;;7.05;;
49193;SDS011;35029;50.804;12.866;2024-01-15T13:57:43;11.73;;;6.93;;
49193;SDS011;35029;50.804;12.866;2024-01-15T14:00:09;13.77;;;7.07;;
49193;SDS011;35029;50.804;12.866;2024-01-15T14:02:37;12.07;;;6.72;;
49193;SDS011;35029;50.804;12.866;2024-01-15T14:05:03;11.77;;;7.07;;
49193;SDS011;35029;50.804;12.866;2024-01-15T14:07:28;14.82;;;7.20;;
49193;SDS011;35029;50.804;12.866;2024-01-15T14:09:54;15.20;;;8.27;;
49193;SDS011;35029;50.804;12.866;2024-01-15T14:12:19;14.47;;;7.27;;
49193;SDS011;35029;50.804;12.866;2024-01-15T14:14:45;13.20;;;7.90;;
49193;SDS011;35029;50.804;12.866;2024-01-15T14:17:11;17.08;;;8.43;;
49193;SDS011;35029;50.804;12.866;2024-01-15T14:19:37;11.67;;;7.30;;
49193;SDS011;35029;50.804;12.866;2024-01-15T14:22:02;19.87;;;8.77;;
49193;SDS011;35029;50.804;12.866;2024-01-15T14:24:28;13.87;;;8.67;;
49193;SDS011;35029;50.804;12.866;2024-01-15T14:26:54;13.77;;;8.37;;
49193;SDS011;35029;50.804;12.866;2024-01-15T14:29:19;15.60;;;8.57;;
49193;SDS011;35029;50.804;12.866;2024-01-15T14:31:47;17.23;;;8.43;;
49193;SDS011;35029;50.804;12.866;2024-01-15T14:34:13;16.33;;;8.30;;